createdAt,value
2019-02-01T00:01:08.867Z,1.60
2019-02-01T00:03:35.434Z,1.70
2019-02-01T00:06:02.009Z,1.60
2019-02-01T00:08:28.919Z,2.00
2019-02-01T00:11:01.550Z,1.70
2019-02-01T00:13:28.152Z,1.90
2019-02-01T00:15:54.999Z,2.10
2019-02-01T00:18:21.838Z,2.00
2019-02-01T00:20:48.793Z,1.80
2019-02-01T00:23:15.398Z,1.80
2019-02-01T00:25:42.069Z,2.10
2019-02-01T00:28:08.527Z,2.30
2019-02-01T00:30:35.207Z,2.00
2019-02-01T00:33:01.568Z,2.10
2019-02-01T00:35:28.149Z,2.00
2019-02-01T00:37:55.273Z,2.30
2019-02-01T00:40:22.330Z,2.60
2019-02-01T00:42:49.248Z,2.00
2019-02-01T00:45:16.717Z,2.50
2019-02-01T00:47:43.396Z,2.60
2019-02-01T00:50:10.882Z,2.00
2019-02-01T00:52:37.532Z,2.40
2019-02-01T00:55:06.685Z,2.40
2019-02-01T00:57:33.347Z,2.40
2019-02-01T00:59:59.901Z,2.40
2019-02-01T01:02:26.576Z,2.20
2019-02-01T01:04:53.241Z,2.00
2019-02-01T01:07:19.912Z,2.10
2019-02-01T01:09:46.407Z,2.20
2019-02-01T01:12:12.904Z,2.10
2019-02-01T01:14:39.478Z,2.20
2019-02-01T01:17:06.104Z,2.00
2019-02-01T01:19:32.557Z,1.90
2019-02-01T01:21:59.013Z,2.20
2019-02-01T01:24:25.832Z,2.00
2019-02-01T01:26:52.411Z,2.00
2019-02-01T01:29:19.304Z,1.80
2019-02-01T01:31:46.208Z,2.00
2019-02-01T01:34:12.896Z,2.40
2019-02-01T01:36:39.563Z,2.20
2019-02-01T01:39:06.711Z,2.20
2019-02-01T01:41:33.357Z,2.20
2019-02-01T01:44:00.023Z,2.20
2019-02-01T01:46:26.659Z,2.20
2019-02-01T01:48:53.227Z,1.90
2019-02-01T01:51:19.772Z,2.30
2019-02-01T01:53:47.112Z,2.30
2019-02-01T01:56:13.827Z,2.30
2019-02-01T01:58:40.280Z,1.50
2019-02-01T02:01:06.945Z,2.00
2019-02-01T02:03:33.507Z,2.00
2019-02-01T02:06:00.120Z,2.00
2019-02-01T02:08:26.484Z,2.20
2019-02-01T02:10:53.253Z,2.00
2019-02-01T02:13:19.808Z,1.90
2019-02-01T02:15:46.580Z,2.00
2019-02-01T02:18:13.136Z,1.90
2019-02-01T02:20:39.700Z,1.80
2019-02-01T02:23:06.261Z,1.90
2019-02-01T02:25:32.943Z,2.10
2019-02-01T02:27:59.581Z,1.90
2019-02-01T02:30:26.123Z,2.00
2019-02-01T02:32:53.296Z,2.00
2019-02-01T02:35:20.036Z,1.80
2019-02-01T02:37:47.096Z,2.00
2019-02-01T02:40:16.533Z,2.30
2019-02-01T02:42:43.211Z,2.30
2019-02-01T02:45:10.240Z,2.00
2019-02-01T02:47:36.817Z,1.80
2019-02-01T02:50:07.071Z,2.30
2019-02-01T02:52:33.841Z,2.20
2019-02-01T02:55:00.400Z,2.10
2019-02-01T02:57:27.151Z,2.20
2019-02-01T02:59:53.514Z,2.30
2019-02-01T03:02:20.073Z,2.30
2019-02-01T03:04:46.541Z,2.10
2019-02-01T03:07:13.144Z,2.30
2019-02-01T03:09:39.611Z,2.30
2019-02-01T03:12:06.276Z,2.60
2019-02-01T03:14:32.885Z,2.60
2019-02-01T03:16:59.498Z,2.30
2019-02-01T03:19:25.989Z,2.50
2019-02-01T03:21:52.464Z,2.50
2019-02-01T03:24:19.003Z,2.50
2019-02-01T03:26:45.376Z,2.60
2019-02-01T03:29:12.039Z,2.10
2019-02-01T03:31:38.618Z,2.40
2019-02-01T03:34:05.158Z,2.40
2019-02-01T03:36:31.710Z,2.50
2019-02-01T03:38:58.184Z,2.20
2019-02-01T03:41:24.721Z,2.40
2019-02-01T03:43:51.461Z,2.50
2019-02-01T03:46:17.999Z,2.30
2019-02-01T03:48:44.478Z,2.40
2019-02-01T03:51:11.136Z,2.40
2019-02-01T03:53:37.704Z,2.50
2019-02-01T03:56:04.265Z,2.30
2019-02-01T03:58:30.945Z,2.50
2019-02-01T04:00:57.384Z,2.60
2019-02-01T04:03:23.854Z,2.30
2019-02-01T04:05:50.313Z,2.60
2019-02-01T04:08:16.904Z,2.70
2019-02-01T04:10:43.452Z,2.60
2019-02-01T04:13:10.460Z,2.60
2019-02-01T04:15:37.313Z,2.60
2019-02-01T04:18:04.050Z,2.70
2019-02-01T04:20:30.521Z,2.60
2019-02-01T04:22:57.120Z,2.70
2019-02-01T04:25:23.559Z,2.70
2019-02-01T04:27:50.211Z,2.70
2019-02-01T04:30:19.690Z,2.50
2019-02-01T04:32:46.341Z,2.80
2019-02-01T04:35:14.108Z,2.80
2019-02-01T04:37:40.654Z,2.70
2019-02-01T04:40:10.426Z,2.70
2019-02-01T04:42:36.972Z,2.70
2019-02-01T04:45:07.609Z,2.80
2019-02-01T04:47:34.060Z,2.60
2019-02-01T04:50:03.742Z,2.60
2019-02-01T04:52:28.998Z,2.70
2019-02-01T04:54:55.716Z,2.70
2019-02-01T04:57:22.288Z,2.70
2019-02-01T04:59:48.839Z,2.70
2019-02-01T05:02:15.716Z,2.80
2019-02-01T05:04:42.368Z,2.70
2019-02-01T05:07:09.032Z,2.70
2019-02-01T05:09:35.416Z,2.70
2019-02-01T05:12:02.155Z,3.00
2019-02-01T05:14:28.702Z,3.00
2019-02-01T05:16:55.262Z,2.80
2019-02-01T05:19:21.994Z,3.00
2019-02-01T05:21:48.738Z,3.00
2019-02-01T05:24:15.189Z,3.00
2019-02-01T05:26:41.666Z,3.00
2019-02-01T05:29:08.323Z,3.00
2019-02-01T05:31:34.784Z,3.00
2019-02-01T05:34:01.228Z,3.00
2019-02-01T05:36:27.727Z,3.00
2019-02-01T05:38:54.423Z,3.00
2019-02-01T05:41:21.289Z,2.90
2019-02-01T05:43:47.831Z,3.00
2019-02-01T05:46:14.312Z,2.90
2019-02-01T05:48:40.796Z,2.90
2019-02-01T05:51:07.635Z,3.00
2019-02-01T05:53:34.201Z,3.30
2019-02-01T05:56:00.870Z,3.30
2019-02-01T05:58:27.598Z,3.30
2019-02-01T06:00:54.245Z,3.40
2019-02-01T06:03:20.841Z,3.00
2019-02-01T06:05:47.284Z,3.20
2019-02-01T06:08:13.757Z,3.20
2019-02-01T06:10:40.455Z,3.20
2019-02-01T06:13:06.820Z,3.20
2019-02-01T06:15:33.379Z,3.10
2019-02-01T06:18:00.003Z,3.20
2019-02-01T06:20:39.497Z,3.40
2019-02-01T06:22:57.439Z,3.40
2019-02-01T06:25:23.990Z,3.10
2019-02-01T06:27:50.455Z,3.20
2019-02-01T06:30:19.128Z,3.10
2019-02-01T06:32:46.056Z,3.20
2019-02-01T06:35:14.844Z,3.20
2019-02-01T06:37:41.497Z,3.10
2019-02-01T06:40:14.526Z,3.40
2019-02-01T06:42:40.967Z,3.40
2019-02-01T06:45:10.657Z,2.80
2019-02-01T06:47:37.225Z,2.90
2019-02-01T06:50:07.199Z,3.20
2019-02-01T06:52:33.923Z,3.10
2019-02-01T06:55:00.492Z,3.00
2019-02-01T06:57:27.043Z,3.00
2019-02-01T06:59:53.643Z,3.20
2019-02-01T07:02:20.204Z,3.00
2019-02-01T07:04:48.763Z,3.00
2019-02-01T07:07:22.876Z,3.00
2019-02-01T07:09:51.159Z,3.10
2019-02-01T07:12:19.700Z,3.00
2019-02-01T07:14:48.071Z,3.10
2019-02-01T07:17:33.149Z,3.00
2019-02-01T07:20:10.540Z,3.00
2019-02-01T07:22:56.914Z,3.10
2019-02-01T07:25:25.409Z,3.20
2019-02-01T07:28:05.678Z,3.10
2019-02-01T07:30:40.137Z,3.20
2019-02-01T07:33:11.581Z,3.30
2019-02-01T07:35:38.140Z,3.50
2019-02-01T07:38:04.699Z,3.40
2019-02-01T07:40:31.364Z,3.00
2019-02-01T07:42:57.735Z,3.20
2019-02-01T07:45:24.213Z,3.10
2019-02-01T07:47:50.946Z,3.50
2019-02-01T07:50:23.924Z,3.30
2019-02-01T07:52:46.623Z,3.30
2019-02-01T07:55:13.185Z,3.30
2019-02-01T07:57:39.848Z,3.40
2019-02-01T08:00:10.097Z,3.10
2019-02-01T08:02:36.669Z,3.50
2019-02-01T08:05:04.917Z,3.40
2019-02-01T08:07:31.876Z,3.80
2019-02-01T08:09:58.333Z,3.50
2019-02-01T08:12:24.909Z,3.70
2019-02-01T08:14:51.510Z,3.60
2019-02-01T08:17:18.220Z,3.70
2019-02-01T08:19:44.674Z,3.70
2019-02-01T08:22:11.479Z,3.70
2019-02-01T08:24:37.956Z,3.70
2019-02-01T08:27:04.630Z,3.70
2019-02-01T08:29:31.334Z,3.80
2019-02-01T08:31:58.385Z,3.80
2019-02-01T08:34:25.135Z,4.00
2019-02-01T08:36:51.488Z,4.20
2019-02-01T08:39:17.972Z,4.40
2019-02-01T08:41:44.420Z,4.60
2019-02-01T08:44:10.804Z,5.10
2019-02-01T08:46:37.291Z,5.00
2019-02-01T08:49:03.866Z,5.30
2019-02-01T08:51:38.074Z,5.90
2019-02-01T08:53:59.019Z,6.20
2019-02-01T08:56:25.655Z,6.10
2019-02-01T08:58:52.122Z,6.80
2019-02-01T09:01:18.623Z,7.40
2019-02-01T09:03:45.143Z,7.80
2019-02-01T09:06:11.726Z,8.00
2019-02-01T09:08:38.220Z,8.70
2019-02-01T09:11:04.864Z,9.50
2019-02-01T09:13:31.321Z,10.10
2019-02-01T09:15:57.808Z,9.90
2019-02-01T09:18:24.559Z,10.20
2019-02-01T09:20:50.946Z,9.70
2019-02-01T09:23:17.411Z,9.80
2019-02-01T09:25:44.084Z,8.60
2019-02-01T09:28:10.642Z,7.50
2019-02-01T09:30:37.130Z,6.90
2019-02-01T09:33:03.860Z,6.50
2019-02-01T09:35:30.327Z,5.90
2019-02-01T09:37:56.769Z,5.60
2019-02-01T09:40:23.726Z,5.80
2019-02-01T09:42:50.468Z,5.80
2019-02-01T09:45:17.269Z,5.40
2019-02-01T09:47:43.909Z,5.60
2019-02-01T09:50:18.157Z,5.60
2019-02-01T09:52:44.844Z,5.10
2019-02-01T09:55:14.024Z,5.40
2019-02-01T09:57:40.705Z,5.60
2019-02-01T10:00:15.847Z,5.80
2019-02-01T10:02:42.321Z,5.90
2019-02-01T10:05:09.040Z,6.20
2019-02-01T10:07:35.499Z,6.00
2019-02-01T10:10:05.248Z,5.90
2019-02-01T10:12:31.745Z,5.90
2019-02-01T10:14:58.295Z,5.90
2019-02-01T10:17:24.995Z,5.90
2019-02-01T10:19:51.813Z,6.40
2019-02-01T10:22:18.484Z,6.60
2019-02-01T10:24:45.141Z,6.30
2019-02-01T10:27:11.587Z,6.20
2019-02-01T10:29:38.159Z,6.00
2019-02-01T10:32:04.718Z,6.20
2019-02-01T10:34:31.199Z,6.00
2019-02-01T10:36:57.744Z,6.60
2019-02-01T10:39:24.226Z,7.10
2019-02-01T10:41:51.068Z,6.60
2019-02-01T10:44:17.829Z,7.60
2019-02-01T10:46:44.171Z,8.60
2019-02-01T10:49:10.644Z,8.80
2019-02-01T10:51:37.102Z,9.00
2019-02-01T10:54:03.793Z,9.10
2019-02-01T10:56:30.240Z,9.30
2019-02-01T10:58:56.599Z,8.90
2019-02-01T11:01:23.469Z,9.40
2019-02-01T11:03:50.064Z,10.90
2019-02-01T11:06:16.652Z,10.50
2019-02-01T11:08:43.412Z,11.10
2019-02-01T11:11:10.356Z,11.10
2019-02-01T11:13:37.172Z,11.10
2019-02-01T11:16:03.846Z,12.00
2019-02-01T11:18:30.517Z,12.00
2019-02-01T11:20:57.129Z,11.40
2019-02-01T11:23:23.694Z,12.10
2019-02-01T11:25:50.369Z,12.10
2019-02-01T11:28:17.040Z,12.00
2019-02-01T11:30:43.803Z,12.00
2019-02-01T11:33:10.168Z,12.50
2019-02-01T11:35:36.960Z,12.10
2019-02-01T11:38:03.820Z,12.10
2019-02-01T11:40:30.568Z,11.50
2019-02-01T11:42:57.261Z,11.40
2019-02-01T11:45:23.816Z,11.40
2019-02-01T11:47:50.497Z,10.70
2019-02-01T11:50:21.882Z,11.30
2019-02-01T11:52:48.796Z,11.10
2019-02-01T11:55:15.453Z,10.60
2019-02-01T11:57:42.156Z,10.50
2019-02-01T12:00:12.336Z,12.50
2019-02-01T12:02:44.546Z,12.00
2019-02-01T12:05:07.589Z,11.10
2019-02-01T12:07:42.761Z,10.70
2019-02-01T12:10:06.142Z,10.90
2019-02-01T12:12:32.622Z,11.20
2019-02-01T12:14:59.399Z,11.00
2019-02-01T12:17:25.858Z,11.40
2019-02-01T12:19:52.416Z,11.60
2019-02-01T12:22:19.081Z,11.40
2019-02-01T12:24:45.692Z,11.50
2019-02-01T12:27:12.309Z,11.30
2019-02-01T12:29:38.979Z,11.60
2019-02-01T12:32:05.757Z,11.10
2019-02-01T12:34:32.370Z,11.20
2019-02-01T12:37:03.546Z,11.40
2019-02-01T12:39:27.335Z,11.00
2019-02-01T12:41:53.899Z,11.00
2019-02-01T12:44:20.593Z,10.90
2019-02-01T12:46:47.054Z,11.00
2019-02-01T12:49:13.526Z,11.30
2019-02-01T12:51:40.001Z,11.30
2019-02-01T12:54:06.529Z,10.70
2019-02-01T12:56:33.080Z,9.90
2019-02-01T12:58:59.740Z,9.40
2019-02-01T13:01:26.305Z,9.50
2019-02-01T13:03:52.779Z,9.50
2019-02-01T13:06:19.324Z,9.40
2019-02-01T13:08:45.944Z,9.40
2019-02-01T13:11:12.701Z,9.80
2019-02-01T13:13:39.341Z,9.60
2019-02-01T13:16:06.071Z,9.40
2019-02-01T13:18:32.536Z,9.10
2019-02-01T13:20:59.223Z,9.00
2019-02-01T13:23:25.951Z,9.30
2019-02-01T13:25:52.633Z,10.10
2019-02-01T13:28:19.186Z,10.10
2019-02-01T13:30:45.871Z,9.80
2019-02-01T13:33:12.532Z,9.40
2019-02-01T13:35:39.212Z,9.90
2019-02-01T13:38:06.272Z,9.80
2019-02-01T13:40:33.144Z,9.80
2019-02-01T13:43:00.070Z,10.50
2019-02-01T13:45:26.755Z,10.20
2019-02-01T13:47:53.312Z,9.70
2019-02-01T13:50:20.105Z,9.60
2019-02-01T13:52:46.897Z,9.90
2019-02-01T13:55:15.781Z,9.80
2019-02-01T13:57:42.675Z,9.60
2019-02-01T14:00:18.049Z,9.30
2019-02-01T14:02:45.125Z,8.90
2019-02-01T14:05:11.975Z,9.10
2019-02-01T14:07:38.920Z,8.60
2019-02-01T14:10:09.106Z,8.30
2019-02-01T14:12:35.943Z,8.30
2019-02-01T14:15:11.346Z,8.40
2019-02-01T14:17:37.851Z,8.20
2019-02-01T14:20:07.996Z,8.60
2019-02-01T14:22:35.539Z,8.40
2019-02-01T14:25:02.927Z,7.90
2019-02-01T14:27:29.476Z,8.10
2019-02-01T14:29:56.065Z,8.30
2019-02-01T14:32:22.527Z,8.70
2019-02-01T14:34:49.145Z,8.60
2019-02-01T14:37:15.587Z,8.70
2019-02-01T14:39:42.056Z,8.70
2019-02-01T14:42:08.509Z,8.60
2019-02-01T14:44:35.205Z,9.00
2019-02-01T14:47:02.043Z,9.50
2019-02-01T14:49:28.521Z,9.70
2019-02-01T14:51:55.573Z,9.20
2019-02-01T14:54:22.319Z,8.70
2019-02-01T14:56:48.872Z,8.50
2019-02-01T14:59:15.344Z,8.50
2019-02-01T15:01:42.280Z,8.80
2019-02-01T15:04:09.161Z,8.70
2019-02-01T15:06:35.819Z,8.60
2019-02-01T15:09:05.905Z,9.10
2019-02-01T15:11:32.356Z,9.40
2019-02-01T15:13:58.927Z,9.10
2019-02-01T15:16:38.227Z,9.10
2019-02-01T15:18:53.764Z,9.40
2019-02-01T15:21:20.465Z,9.40
2019-02-01T15:23:47.284Z,9.60
2019-02-01T15:26:13.853Z,9.30
2019-02-01T15:28:40.415Z,9.10
2019-02-01T15:31:06.946Z,8.80
2019-02-01T15:33:33.837Z,9.00
2019-02-01T15:36:00.407Z,8.70
2019-02-01T15:38:26.865Z,8.60
2019-02-01T15:40:53.445Z,8.60
2019-02-01T15:43:20.269Z,8.40
2019-02-01T15:45:46.857Z,8.20
2019-02-01T15:48:13.414Z,7.60
2019-02-01T15:50:40.346Z,7.70
2019-02-01T15:53:06.800Z,7.50
2019-02-01T15:55:33.443Z,7.10
2019-02-01T15:57:59.910Z,7.30
2019-02-01T16:00:31.760Z,6.90
2019-02-01T16:02:59.490Z,7.00
2019-02-01T16:05:26.347Z,6.70
2019-02-01T16:07:53.224Z,6.90
2019-02-01T16:10:19.973Z,6.80
2019-02-01T16:12:47.651Z,6.80
2019-02-01T16:15:17.203Z,6.60
2019-02-01T16:17:43.788Z,6.60
2019-02-01T16:20:13.833Z,6.30
2019-02-01T16:22:41.064Z,6.20
2019-02-01T16:25:07.621Z,5.90
2019-02-01T16:27:34.196Z,6.10
2019-02-01T16:30:00.948Z,6.20
2019-02-01T16:32:27.424Z,5.60
2019-02-01T16:34:53.995Z,5.90
2019-02-01T16:37:20.488Z,5.60
2019-02-01T16:39:47.045Z,6.10
2019-02-01T16:42:13.803Z,5.70
2019-02-01T16:44:40.633Z,6.20
2019-02-01T16:47:07.316Z,6.10
2019-02-01T16:49:33.982Z,5.90
2019-02-01T16:52:00.741Z,5.70
2019-02-01T16:54:27.356Z,5.70
2019-02-01T16:56:53.914Z,6.00
2019-02-01T16:59:20.492Z,5.60
2019-02-01T17:01:47.053Z,5.90
2019-02-01T17:04:13.636Z,5.70
2019-02-01T17:06:40.187Z,5.70
2019-02-01T17:09:07.170Z,5.70
2019-02-01T17:11:34.031Z,5.60
2019-02-01T17:14:00.633Z,5.80
2019-02-01T17:16:27.553Z,5.70
2019-02-01T17:18:54.035Z,5.60
2019-02-01T17:21:20.499Z,5.90
2019-02-01T17:23:47.052Z,5.80
2019-02-01T17:26:13.617Z,5.60
2019-02-01T17:28:40.091Z,5.60
2019-02-01T17:31:06.738Z,5.80
2019-02-01T17:33:33.208Z,5.80
2019-02-01T17:35:59.852Z,5.70
2019-02-01T17:38:26.443Z,5.60
2019-02-01T17:40:52.907Z,5.80
2019-02-01T17:43:19.372Z,5.50
2019-02-01T17:45:45.972Z,5.40
2019-02-01T17:48:12.420Z,5.50
2019-02-01T17:50:39.621Z,5.40
2019-02-01T17:53:06.389Z,5.10
2019-02-01T17:55:33.190Z,5.30
2019-02-01T17:57:59.657Z,5.40
2019-02-01T18:00:31.145Z,5.40
2019-02-01T18:02:57.740Z,5.10
2019-02-01T18:05:24.745Z,5.10
2019-02-01T18:07:53.300Z,5.10
2019-02-01T18:10:19.997Z,5.10
2019-02-01T18:12:46.453Z,5.30
2019-02-01T18:15:14.453Z,5.10
2019-02-01T18:17:41.100Z,5.00
2019-02-01T18:20:15.880Z,5.30
2019-02-01T18:22:42.565Z,5.00
2019-02-01T18:25:24.832Z,5.50
2019-02-01T18:27:51.289Z,5.50
2019-02-01T18:30:21.554Z,5.50
2019-02-01T18:32:48.020Z,5.10
2019-02-01T18:35:14.675Z,5.30
2019-02-01T18:37:41.236Z,5.50
2019-02-01T18:40:11.012Z,5.50
2019-02-01T18:42:37.686Z,5.50
2019-02-01T18:45:07.443Z,5.40
2019-02-01T18:47:33.936Z,5.60
2019-02-01T18:50:00.780Z,5.30
2019-02-01T18:52:27.406Z,5.30
2019-02-01T18:54:53.890Z,5.10
2019-02-01T18:57:20.732Z,5.20
2019-02-01T18:59:47.212Z,5.30
2019-02-01T19:02:13.806Z,5.30
2019-02-01T19:04:40.260Z,5.40
2019-02-01T19:07:06.938Z,5.10
2019-02-01T19:09:33.515Z,5.10
2019-02-01T19:12:00.282Z,5.10
2019-02-01T19:14:26.753Z,5.10
2019-02-01T19:16:53.328Z,5.00
2019-02-01T19:19:19.789Z,5.20
2019-02-01T19:21:46.362Z,5.20
2019-02-01T19:24:13.206Z,5.20
2019-02-01T19:26:39.815Z,5.10
2019-02-01T19:29:06.475Z,4.80
2019-02-01T19:31:33.058Z,5.20
2019-02-01T19:33:59.525Z,5.30
2019-02-01T19:36:26.167Z,4.80
2019-02-01T19:38:52.753Z,4.80
2019-02-01T19:41:19.339Z,4.90
2019-02-01T19:43:45.839Z,5.00
2019-02-01T19:46:12.404Z,4.80
2019-02-01T19:48:38.880Z,4.80
2019-02-01T19:51:05.553Z,4.60
2019-02-01T19:53:32.141Z,4.50
2019-02-01T19:55:58.896Z,4.50
2019-02-01T19:58:25.845Z,4.60
2019-02-01T20:00:52.769Z,4.50
2019-02-01T20:03:19.245Z,4.60
2019-02-01T20:05:45.881Z,4.50
2019-02-01T20:08:12.367Z,4.50
2019-02-01T20:10:38.836Z,4.60
2019-02-01T20:13:05.608Z,4.50
2019-02-01T20:15:33.972Z,4.50
2019-02-01T20:18:00.665Z,4.50
2019-02-01T20:20:32.331Z,4.60
2019-02-01T20:22:58.901Z,4.50
2019-02-01T20:25:27.181Z,4.50
2019-02-01T20:27:53.732Z,4.70
2019-02-01T20:30:28.616Z,4.50
2019-02-01T20:32:55.372Z,4.80
2019-02-01T20:35:22.043Z,4.50
2019-02-01T20:37:48.648Z,4.60
2019-02-01T20:40:21.327Z,4.00
2019-02-01T20:42:48.011Z,4.00
2019-02-01T20:45:14.883Z,4.50
2019-02-01T20:47:41.466Z,4.60
2019-02-01T20:50:11.469Z,4.50
2019-02-01T20:52:38.242Z,4.50
2019-02-01T20:55:06.098Z,4.60
2019-02-01T20:57:32.663Z,4.50
2019-02-01T20:59:59.224Z,4.80
2019-02-01T21:02:25.894Z,4.50
2019-02-01T21:04:52.767Z,4.50
2019-02-01T21:07:21.043Z,4.50
2019-02-01T21:09:47.648Z,4.60
2019-02-01T21:12:14.230Z,4.50
2019-02-01T21:14:40.840Z,4.90
2019-02-01T21:17:07.287Z,4.40
2019-02-01T21:19:33.771Z,4.40
2019-02-01T21:22:00.229Z,4.50
2019-02-01T21:24:26.802Z,4.40
2019-02-01T21:26:53.465Z,4.60
2019-02-01T21:29:20.035Z,4.50
2019-02-01T21:31:46.610Z,4.90
2019-02-01T21:34:13.251Z,4.70
2019-02-01T21:36:39.647Z,4.80
2019-02-01T21:39:06.711Z,4.60
2019-02-01T21:41:33.199Z,5.00
2019-02-01T21:43:59.857Z,4.80
2019-02-01T21:46:26.481Z,4.70
2019-02-01T21:48:53.427Z,4.60
2019-02-01T21:51:19.870Z,4.80
2019-02-01T21:53:46.532Z,5.00
2019-02-01T21:56:13.229Z,4.70
2019-02-01T21:58:39.890Z,4.70
2019-02-01T22:01:06.938Z,4.40
2019-02-01T22:03:33.388Z,4.50
2019-02-01T22:05:59.958Z,4.60
2019-02-01T22:08:26.444Z,4.50
2019-02-01T22:10:52.900Z,4.70
2019-02-01T22:13:19.759Z,5.00
2019-02-01T22:15:46.211Z,4.70
2019-02-01T22:18:13.088Z,4.80
2019-02-01T22:20:39.541Z,4.80
2019-02-01T22:23:06.124Z,4.70
2019-02-01T22:25:32.683Z,4.80
2019-02-01T22:27:59.253Z,4.80
2019-02-01T22:30:30.656Z,4.80
2019-02-01T22:32:57.349Z,4.80
2019-02-01T22:35:24.014Z,5.00
2019-02-01T22:37:50.683Z,4.80
2019-02-01T22:40:21.750Z,4.80
2019-02-01T22:42:48.196Z,4.90
2019-02-01T22:45:14.872Z,4.70
2019-02-01T22:47:41.324Z,4.60
2019-02-01T22:50:11.624Z,4.80
2019-02-01T22:52:38.274Z,4.90
2019-02-01T22:55:08.048Z,4.80
2019-02-01T22:57:34.719Z,4.70
2019-02-01T23:00:01.882Z,4.80
2019-02-01T23:02:28.550Z,4.80
2019-02-01T23:04:55.235Z,4.80
2019-02-01T23:07:21.793Z,5.00
2019-02-01T23:09:48.524Z,5.00
2019-02-01T23:12:15.180Z,4.80
2019-02-01T23:14:41.555Z,4.80
2019-02-01T23:17:08.207Z,5.10
2019-02-01T23:19:34.790Z,5.30
2019-02-01T23:22:01.340Z,4.80
2019-02-01T23:24:27.752Z,4.80
2019-02-01T23:26:54.191Z,4.80
2019-02-01T23:29:21.055Z,5.10
2019-02-01T23:31:48.638Z,5.30
2019-02-01T23:34:15.300Z,5.00
2019-02-01T23:36:42.083Z,4.90
2019-02-01T23:39:10.133Z,5.30
2019-02-01T23:41:36.599Z,5.30
2019-02-01T23:44:03.849Z,5.10
2019-02-01T23:46:30.321Z,5.60
2019-02-01T23:48:56.916Z,5.30
2019-02-01T23:51:25.285Z,5.30
2019-02-01T23:53:51.938Z,5.30
2019-02-01T23:56:18.429Z,5.40
2019-02-01T23:58:44.997Z,5.30
